sensor_id;sensor_type;location;lat;lon;timestamp;P1;durP1;ratioP1;P2;durP2;ratioP2
4011;SDS011;2020;48.682;9.024;2023-04-16T00:01:10;3.20;;;2.90;;
4011;SDS011;2020;48.682;9.024;2023-04-16T00:03:36;3.20;;;3.10;;
4011;SDS011;2020;48.682;9.024;2023-04-16T00:06:01;2.97;;;2.80;;
4011;SDS011;2020;48.682;9.024;2023-04-16T00:08:26;3.57;;;2.57;;
4011;SDS011;2020;48.682;9.024;2023-04-16T00:10:52;3.20;;;2.90;;
4011;SDS011;2020;48.682;9.024;2023-04-16T00:13:17;3.10;;;2.90;;
4011;SDS011;2020;48.682;9.024;2023-04-16T00:15:42;5.53;;;3.37;;
4011;SDS011;2020;48.682;9.024;2023-04-16T00:18:08;3.43;;;3.23;;
4011;SDS011;2020;48.682;9.024;2023-04-16T00:20:33;3.60;;;3.30;;
4011;SDS011;2020;48.682;9.024;2023-04-16T00:22:58;3.33;;;2.83;;
4011;SDS011;2020;48.682;9.024;2023-04-16T00:25:23;2.70;;;2.60;;
4011;SDS011;2020;48.682;9.024;2023-04-16T00:27:49;4.20;;;2.90;;
4011;SDS011;2020;48.682;9.024;2023-04-16T00:30:14;3.10;;;2.90;;
4011;SDS011;2020;48.682;9.024;2023-04-16T00:32:40;3.30;;;3.10;;
4011;SDS011;2020;48.682;9.024;2023-04-16T00:35:05;2.70;;;2.60;;
4011;SDS011;2020;48.682;9.024;2023-04-16T00:37:31;2.80;;;2.70;;
4011;SDS011;2020;48.682;9.024;2023-04-16T00:39:56;2.73;;;2.53;;
4011;SDS011;2020;48.682;9.024;2023-04-16T00:42:21;2.80;;;2.60;;
4011;SDS011;2020;48.682;9.024;2023-04-16T00:44:46;2.30;;;2.20;;
4011;SDS011;2020;48.682;9.024;2023-04-16T00:47:12;2.97;;;2.83;;
4011;SDS011;2020;48.682;9.024;2023-04-16T00:49:37;4.27;;;3.00;;
4011;SDS011;2020;48.682;9.024;2023-04-16T00:52:03;3.00;;;2.70;;
4011;SDS011;2020;48.682;9.024;2023-04-16T00:54:28;3.83;;;3.53;;
4011;SDS011;2020;48.682;9.024;2023-04-16T00:56:55;3.23;;;3.03;;
4011;SDS011;2020;48.682;9.024;2023-04-16T00:59:20;3.90;;;3.57;;
4011;SDS011;2020;48.682;9.024;2023-04-16T01:01:46;2.63;;;2.43;;
4011;SDS011;2020;48.682;9.024;2023-04-16T01:04:11;3.30;;;3.00;;
4011;SDS011;2020;48.682;9.024;2023-04-16T01:06:36;3.07;;;2.87;;
4011;SDS011;2020;48.682;9.024;2023-04-16T01:09:02;4.13;;;3.90;;
4011;SDS011;2020;48.682;9.024;2023-04-16T01:11:27;2.43;;;2.30;;
4011;SDS011;2020;48.682;9.024;2023-04-16T01:13:53;2.60;;;2.50;;
4011;SDS011;2020;48.682;9.024;2023-04-16T01:16:18;2.70;;;2.60;;
4011;SDS011;2020;48.682;9.024;2023-04-16T01:18:43;2.67;;;2.47;;
4011;SDS011;2020;48.682;9.024;2023-04-16T01:21:08;2.23;;;1.97;;
4011;SDS011;2020;48.682;9.024;2023-04-16T01:23:34;2.90;;;2.70;;
4011;SDS011;2020;48.682;9.024;2023-04-16T01:25:59;2.30;;;2.20;;
4011;SDS011;2020;48.682;9.024;2023-04-16T01:28:25;2.53;;;2.43;;
4011;SDS011;2020;48.682;9.024;2023-04-16T01:30:50;2.37;;;2.27;;
4011;SDS011;2020;48.682;9.024;2023-04-16T01:33:16;2.40;;;2.20;;
4011;SDS011;2020;48.682;9.024;2023-04-16T01:35:42;2.10;;;2.00;;
4011;SDS011;2020;48.682;9.024;2023-04-16T01:38:08;2.33;;;2.13;;
4011;SDS011;2020;48.682;9.024;2023-04-16T01:40:34;2.57;;;2.43;;
4011;SDS011;2020;48.682;9.024;2023-04-16T01:43:00;2.67;;;2.57;;
4011;SDS011;2020;48.682;9.024;2023-04-16T01:45:25;2.27;;;2.17;;
4011;SDS011;2020;48.682;9.024;2023-04-16T01:47:51;1.83;;;1.73;;
4011;SDS011;2020;48.682;9.024;2023-04-16T01:50:16;2.00;;;1.90;;
4011;SDS011;2020;48.682;9.024;2023-04-16T01:52:43;2.30;;;2.20;;
4011;SDS011;2020;48.682;9.024;2023-04-16T01:55:08;2.67;;;2.47;;
4011;SDS011;2020;48.682;9.024;2023-04-16T01:57:34;2.07;;;1.97;;
4011;SDS011;2020;48.682;9.024;2023-04-16T01:59:59;1.67;;;1.57;;
4011;SDS011;2020;48.682;9.024;2023-04-16T02:02:24;1.43;;;1.43;;
4011;SDS011;2020;48.682;9.024;2023-04-16T02:04:52;2.27;;;1.90;;
4011;SDS011;2020;48.682;9.024;2023-04-16T02:07:18;1.83;;;1.73;;
4011;SDS011;2020;48.682;9.024;2023-04-16T02:09:43;1.77;;;1.67;;
4011;SDS011;2020;48.682;9.024;2023-04-16T02:12:08;1.80;;;1.50;;
4011;SDS011;2020;48.682;9.024;2023-04-16T02:14:35;1.50;;;1.40;;
4011;SDS011;2020;48.682;9.024;2023-04-16T02:17:01;1.97;;;1.87;;
4011;SDS011;2020;48.682;9.024;2023-04-16T02:19:26;2.17;;;2.07;;
4011;SDS011;2020;48.682;9.024;2023-04-16T02:21:51;1.87;;;1.77;;
4011;SDS011;2020;48.682;9.024;2023-04-16T02:24:17;2.07;;;1.90;;
4011;SDS011;2020;48.682;9.024;2023-04-16T02:26:42;1.60;;;1.50;;
4011;SDS011;2020;48.682;9.024;2023-04-16T02:29:09;2.50;;;2.30;;
4011;SDS011;2020;48.682;9.024;2023-04-16T02:31:34;1.60;;;1.57;;
4011;SDS011;2020;48.682;9.024;2023-04-16T02:33:59;1.10;;;1.10;;
4011;SDS011;2020;48.682;9.024;2023-04-16T02:36:25;1.67;;;1.57;;
4011;SDS011;2020;48.682;9.024;2023-04-16T02:38:51;1.87;;;1.77;;
4011;SDS011;2020;48.682;9.024;2023-04-16T02:41:16;2.13;;;1.93;;
4011;SDS011;2020;48.682;9.024;2023-04-16T02:43:41;1.50;;;1.50;;
4011;SDS011;2020;48.682;9.024;2023-04-16T02:46:07;1.87;;;1.77;;
4011;SDS011;2020;48.682;9.024;2023-04-16T02:48:32;2.10;;;2.00;;
4011;SDS011;2020;48.682;9.024;2023-04-16T02:50:57;3.60;;;1.90;;
4011;SDS011;2020;48.682;9.024;2023-04-16T02:53:22;1.57;;;1.30;;
4011;SDS011;2020;48.682;9.024;2023-04-16T02:55:49;1.37;;;1.37;;
4011;SDS011;2020;48.682;9.024;2023-04-16T02:58:16;1.90;;;1.80;;
4011;SDS011;2020;48.682;9.024;2023-04-16T03:00:41;1.27;;;1.27;;
4011;SDS011;2020;48.682;9.024;2023-04-16T03:03:07;1.30;;;1.30;;
4011;SDS011;2020;48.682;9.024;2023-04-16T03:05:32;1.40;;;1.40;;
4011;SDS011;2020;48.682;9.024;2023-04-16T03:07:57;1.80;;;1.70;;
4011;SDS011;2020;48.682;9.024;2023-04-16T03:10:22;3.80;;;2.30;;
4011;SDS011;2020;48.682;9.024;2023-04-16T03:12:48;1.80;;;1.70;;
4011;SDS011;2020;48.682;9.024;2023-04-16T03:15:13;1.60;;;1.50;;
4011;SDS011;2020;48.682;9.024;2023-04-16T03:17:38;1.70;;;1.60;;
4011;SDS011;2020;48.682;9.024;2023-04-16T03:20:04;2.00;;;1.90;;
4011;SDS011;2020;48.682;9.024;2023-04-16T03:22:30;1.63;;;1.57;;
4011;SDS011;2020;48.682;9.024;2023-04-16T03:24:55;2.37;;;2.17;;
4011;SDS011;2020;48.682;9.024;2023-04-16T03:27:20;1.30;;;1.20;;
4011;SDS011;2020;48.682;9.024;2023-04-16T03:29:46;1.83;;;1.67;;
4011;SDS011;2020;48.682;9.024;2023-04-16T03:32:11;3.90;;;2.13;;
4011;SDS011;2020;48.682;9.024;2023-04-16T03:34:36;2.47;;;2.37;;
4011;SDS011;2020;48.682;9.024;2023-04-16T03:37:02;1.93;;;1.80;;
4011;SDS011;2020;48.682;9.024;2023-04-16T03:39:29;2.03;;;1.93;;
4011;SDS011;2020;48.682;9.024;2023-04-16T03:41:54;1.63;;;1.53;;
4011;SDS011;2020;48.682;9.024;2023-04-16T03:44:19;3.10;;;2.67;;
4011;SDS011;2020;48.682;9.024;2023-04-16T03:46:45;2.60;;;2.40;;
4011;SDS011;2020;48.682;9.024;2023-04-16T03:49:10;3.47;;;3.17;;
4011;SDS011;2020;48.682;9.024;2023-04-16T03:51:35;3.03;;;2.83;;
4011;SDS011;2020;48.682;9.024;2023-04-16T03:54:01;4.80;;;2.37;;
4011;SDS011;2020;48.682;9.024;2023-04-16T03:56:26;3.03;;;2.83;;
4011;SDS011;2020;48.682;9.024;2023-04-16T03:58:51;2.27;;;2.17;;
4011;SDS011;2020;48.682;9.024;2023-04-16T04:01:16;2.30;;;2.10;;
4011;SDS011;2020;48.682;9.024;2023-04-16T04:03:41;2.80;;;2.60;;
4011;SDS011;2020;48.682;9.024;2023-04-16T04:06:07;2.27;;;1.90;;
4011;SDS011;2020;48.682;9.024;2023-04-16T04:08:33;3.83;;;3.17;;
4011;SDS011;2020;48.682;9.024;2023-04-16T04:10:58;2.30;;;1.83;;
4011;SDS011;2020;48.682;9.024;2023-04-16T04:13:24;2.50;;;2.30;;
4011;SDS011;2020;48.682;9.024;2023-04-16T04:15:49;2.50;;;1.90;;
4011;SDS011;2020;48.682;9.024;2023-04-16T04:18:15;3.17;;;1.40;;
4011;SDS011;2020;48.682;9.024;2023-04-16T04:20:40;2.97;;;1.90;;
4011;SDS011;2020;48.682;9.024;2023-04-16T04:23:05;2.30;;;2.10;;
4011;SDS011;2020;48.682;9.024;2023-04-16T04:25:31;2.40;;;2.13;;
4011;SDS011;2020;48.682;9.024;2023-04-16T04:27:56;1.90;;;1.80;;
4011;SDS011;2020;48.682;9.024;2023-04-16T04:30:21;2.60;;;2.40;;
4011;SDS011;2020;48.682;9.024;2023-04-16T04:32:46;1.40;;;1.30;;
4011;SDS011;2020;48.682;9.024;2023-04-16T04:35:12;2.33;;;1.93;;
4011;SDS011;2020;48.682;9.024;2023-04-16T04:37:37;1.63;;;1.53;;
4011;SDS011;2020;48.682;9.024;2023-04-16T04:40:02;1.60;;;1.50;;
4011;SDS011;2020;48.682;9.024;2023-04-16T04:42:28;1.60;;;1.50;;
4011;SDS011;2020;48.682;9.024;2023-04-16T04:44:53;1.97;;;1.87;;
4011;SDS011;2020;48.682;9.024;2023-04-16T04:47:18;2.90;;;2.70;;
4011;SDS011;2020;48.682;9.024;2023-04-16T04:49:43;1.90;;;1.90;;
4011;SDS011;2020;48.682;9.024;2023-04-16T04:52:09;3.20;;;2.10;;
4011;SDS011;2020;48.682;9.024;2023-04-16T04:54:35;1.17;;;1.17;;
4011;SDS011;2020;48.682;9.024;2023-04-16T04:57:00;2.60;;;1.70;;
4011;SDS011;2020;48.682;9.024;2023-04-16T04:59:27;1.53;;;1.50;;
4011;SDS011;2020;48.682;9.024;2023-04-16T05:01:52;1.80;;;1.70;;
4011;SDS011;2020;48.682;9.024;2023-04-16T05:04:17;2.53;;;2.33;;
4011;SDS011;2020;48.682;9.024;2023-04-16T05:06:43;1.50;;;1.47;;
4011;SDS011;2020;48.682;9.024;2023-04-16T05:09:09;3.57;;;3.27;;
4011;SDS011;2020;48.682;9.024;2023-04-16T05:11:35;2.80;;;2.70;;
4011;SDS011;2020;48.682;9.024;2023-04-16T05:14:02;2.10;;;2.00;;
4011;SDS011;2020;48.682;9.024;2023-04-16T05:16:27;2.70;;;2.33;;
4011;SDS011;2020;48.682;9.024;2023-04-16T05:18:52;1.67;;;1.67;;
4011;SDS011;2020;48.682;9.024;2023-04-16T05:21:19;2.50;;;2.30;;
4011;SDS011;2020;48.682;9.024;2023-04-16T05:23:45;2.40;;;2.20;;
4011;SDS011;2020;48.682;9.024;2023-04-16T05:26:10;2.67;;;2.13;;
4011;SDS011;2020;48.682;9.024;2023-04-16T05:28:35;3.13;;;2.40;;
4011;SDS011;2020;48.682;9.024;2023-04-16T05:31:01;2.97;;;2.67;;
4011;SDS011;2020;48.682;9.024;2023-04-16T05:33:26;3.00;;;2.80;;
4011;SDS011;2020;48.682;9.024;2023-04-16T05:35:51;3.67;;;3.37;;
4011;SDS011;2020;48.682;9.024;2023-04-16T05:38:16;5.07;;;3.87;;
4011;SDS011;2020;48.682;9.024;2023-04-16T05:40:42;5.73;;;4.07;;
4011;SDS011;2020;48.682;9.024;2023-04-16T05:43:07;4.80;;;4.37;;
4011;SDS011;2020;48.682;9.024;2023-04-16T05:45:32;7.07;;;3.93;;
4011;SDS011;2020;48.682;9.024;2023-04-16T05:48:03;4.67;;;3.50;;
4011;SDS011;2020;48.682;9.024;2023-04-16T05:50:29;5.47;;;4.73;;
4011;SDS011;2020;48.682;9.024;2023-04-16T05:52:54;5.80;;;3.50;;
4011;SDS011;2020;48.682;9.024;2023-04-16T05:55:19;4.80;;;3.77;;
4011;SDS011;2020;48.682;9.024;2023-04-16T05:57:45;3.60;;;3.30;;
4011;SDS011;2020;48.682;9.024;2023-04-16T06:00:10;6.50;;;5.27;;
4011;SDS011;2020;48.682;9.024;2023-04-16T06:02:35;5.93;;;5.13;;
4011;SDS011;2020;48.682;9.024;2023-04-16T06:05:01;5.73;;;4.63;;
4011;SDS011;2020;48.682;9.024;2023-04-16T06:07:26;4.10;;;3.63;;
4011;SDS011;2020;48.682;9.024;2023-04-16T06:09:51;5.93;;;5.20;;
4011;SDS011;2020;48.682;9.024;2023-04-16T06:12:16;6.53;;;4.90;;
4011;SDS011;2020;48.682;9.024;2023-04-16T06:14:42;4.90;;;4.50;;
4011;SDS011;2020;48.682;9.024;2023-04-16T06:17:07;6.20;;;5.27;;
4011;SDS011;2020;48.682;9.024;2023-04-16T06:19:32;8.33;;;5.70;;
4011;SDS011;2020;48.682;9.024;2023-04-16T06:21:58;6.60;;;5.10;;
4011;SDS011;2020;48.682;9.024;2023-04-16T06:24:23;4.60;;;4.13;;
4011;SDS011;2020;48.682;9.024;2023-04-16T06:26:48;6.00;;;4.80;;
4011;SDS011;2020;48.682;9.024;2023-04-16T06:29:13;7.63;;;5.47;;
4011;SDS011;2020;48.682;9.024;2023-04-16T06:31:39;8.47;;;6.03;;
4011;SDS011;2020;48.682;9.024;2023-04-16T06:34:05;6.90;;;4.37;;
4011;SDS011;2020;48.682;9.024;2023-04-16T06:36:30;7.23;;;6.30;;
4011;SDS011;2020;48.682;9.024;2023-04-16T06:38:55;7.20;;;4.70;;
4011;SDS011;2020;48.682;9.024;2023-04-16T06:41:20;6.07;;;4.73;;
4011;SDS011;2020;48.682;9.024;2023-04-16T06:43:47;8.00;;;5.40;;
4011;SDS011;2020;48.682;9.024;2023-04-16T06:46:12;8.00;;;4.80;;
4011;SDS011;2020;48.682;9.024;2023-04-16T06:48:38;6.53;;;4.80;;
4011;SDS011;2020;48.682;9.024;2023-04-16T06:51:03;6.70;;;5.10;;
4011;SDS011;2020;48.682;9.024;2023-04-16T06:53:28;10.70;;;6.43;;
4011;SDS011;2020;48.682;9.024;2023-04-16T06:55:54;7.30;;;5.77;;
4011;SDS011;2020;48.682;9.024;2023-04-16T06:58:19;7.67;;;6.10;;
4011;SDS011;2020;48.682;9.024;2023-04-16T07:00:46;6.80;;;5.27;;
4011;SDS011;2020;48.682;9.024;2023-04-16T07:03:11;9.07;;;7.23;;
4011;SDS011;2020;48.682;9.024;2023-04-16T07:05:36;12.53;;;7.20;;
4011;SDS011;2020;48.682;9.024;2023-04-16T07:08:02;7.10;;;5.60;;
4011;SDS011;2020;48.682;9.024;2023-04-16T07:10:27;8.27;;;5.60;;
4011;SDS011;2020;48.682;9.024;2023-04-16T07:12:52;9.40;;;7.33;;
4011;SDS011;2020;48.682;9.024;2023-04-16T07:15:17;8.97;;;6.30;;
4011;SDS011;2020;48.682;9.024;2023-04-16T07:17:43;5.93;;;5.37;;
4011;SDS011;2020;48.682;9.024;2023-04-16T07:20:08;9.30;;;5.20;;
4011;SDS011;2020;48.682;9.024;2023-04-16T07:22:34;7.60;;;5.20;;
4011;SDS011;2020;48.682;9.024;2023-04-16T07:24:59;11.80;;;6.97;;
4011;SDS011;2020;48.682;9.024;2023-04-16T07:27:24;6.70;;;4.97;;
4011;SDS011;2020;48.682;9.024;2023-04-16T07:29:49;8.30;;;6.57;;
4011;SDS011;2020;48.682;9.024;2023-04-16T07:32:15;8.40;;;5.20;;
4011;SDS011;2020;48.682;9.024;2023-04-16T07:34:40;7.67;;;6.43;;
4011;SDS011;2020;48.682;9.024;2023-04-16T07:37:05;10.87;;;6.20;;
4011;SDS011;2020;48.682;9.024;2023-04-16T07:39:31;6.50;;;5.30;;
4011;SDS011;2020;48.682;9.024;2023-04-16T07:41:56;7.50;;;5.80;;
4011;SDS011;2020;48.682;9.024;2023-04-16T07:44:21;9.50;;;6.07;;
4011;SDS011;2020;48.682;9.024;2023-04-16T07:46:46;6.97;;;5.10;;
4011;SDS011;2020;48.682;9.024;2023-04-16T07:49:12;8.13;;;5.50;;
4011;SDS011;2020;48.682;9.024;2023-04-16T07:51:37;10.33;;;6.53;;
4011;SDS011;2020;48.682;9.024;2023-04-16T07:54:02;6.00;;;5.50;;
4011;SDS011;2020;48.682;9.024;2023-04-16T07:56:27;10.23;;;6.90;;
4011;SDS011;2020;48.682;9.024;2023-04-16T07:58:53;8.03;;;6.90;;
4011;SDS011;2020;48.682;9.024;2023-04-16T08:01:18;6.63;;;5.80;;
4011;SDS011;2020;48.682;9.024;2023-04-16T08:03:43;7.50;;;5.23;;
4011;SDS011;2020;48.682;9.024;2023-04-16T08:06:09;8.37;;;6.20;;
4011;SDS011;2020;48.682;9.024;2023-04-16T08:08:34;10.50;;;5.80;;
4011;SDS011;2020;48.682;9.024;2023-04-16T08:11:00;11.63;;;6.97;;
4011;SDS011;2020;48.682;9.024;2023-04-16T08:13:25;5.07;;;4.47;;
4011;SDS011;2020;48.682;9.024;2023-04-16T08:15:50;6.33;;;5.73;;
4011;SDS011;2020;48.682;9.024;2023-04-16T08:18:15;4.80;;;4.47;;
4011;SDS011;2020;48.682;9.024;2023-04-16T08:20:41;7.63;;;5.93;;
4011;SDS011;2020;48.682;9.024;2023-04-16T08:23:06;7.47;;;4.90;;
4011;SDS011;2020;48.682;9.024;2023-04-16T08:25:32;7.30;;;5.20;;
4011;SDS011;2020;48.682;9.024;2023-04-16T08:27:57;6.33;;;5.20;;
4011;SDS011;2020;48.682;9.024;2023-04-16T08:30:22;6.70;;;4.63;;
4011;SDS011;2020;48.682;9.024;2023-04-16T08:32:48;5.27;;;4.10;;
4011;SDS011;2020;48.682;9.024;2023-04-16T08:35:13;6.07;;;5.47;;
4011;SDS011;2020;48.682;9.024;2023-04-16T08:37:39;7.53;;;5.60;;
4011;SDS011;2020;48.682;9.024;2023-04-16T08:40:04;7.60;;;6.30;;
4011;SDS011;2020;48.682;9.024;2023-04-16T08:42:31;7.10;;;6.07;;
4011;SDS011;2020;48.682;9.024;2023-04-16T08:45:07;5.40;;;4.90;;
4011;SDS011;2020;48.682;9.024;2023-04-16T08:47:37;5.70;;;4.20;;
4011;SDS011;2020;48.682;9.024;2023-04-16T08:50:03;5.80;;;4.20;;
4011;SDS011;2020;48.682;9.024;2023-04-16T08:52:30;7.83;;;5.60;;
4011;SDS011;2020;48.682;9.024;2023-04-16T08:57:29;9.90;;;5.80;;
4011;SDS011;2020;48.682;9.024;2023-04-16T09:00:04;5.67;;;4.57;;
4011;SDS011;2020;48.682;9.024;2023-04-16T09:02:31;5.30;;;4.80;;
4011;SDS011;2020;48.682;9.024;2023-04-16T09:04:58;8.27;;;4.80;;
4011;SDS011;2020;48.682;9.024;2023-04-16T09:07:24;6.43;;;5.07;;
4011;SDS011;2020;48.682;9.024;2023-04-16T09:09:52;8.83;;;5.30;;
4011;SDS011;2020;48.682;9.024;2023-04-16T09:12:18;7.30;;;4.60;;
4011;SDS011;2020;48.682;9.024;2023-04-16T09:14:48;5.70;;;4.50;;
4011;SDS011;2020;48.682;9.024;2023-04-16T09:17:14;5.27;;;4.07;;
4011;SDS011;2020;48.682;9.024;2023-04-16T09:19:40;4.60;;;4.20;;
4011;SDS011;2020;48.682;9.024;2023-04-16T09:22:06;4.80;;;4.47;;
4011;SDS011;2020;48.682;9.024;2023-04-16T09:24:31;5.63;;;5.17;;
4011;SDS011;2020;48.682;9.024;2023-04-16T09:26:58;8.67;;;4.90;;
4011;SDS011;2020;48.682;9.024;2023-04-16T09:29:39;5.57;;;4.57;;
4011;SDS011;2020;48.682;9.024;2023-04-16T09:32:06;4.50;;;4.10;;
4011;SDS011;2020;48.682;9.024;2023-04-16T09:34:34;4.43;;;4.10;;
4011;SDS011;2020;48.682;9.024;2023-04-16T09:37:17;4.20;;;3.90;;
4011;SDS011;2020;48.682;9.024;2023-04-16T09:39:43;5.90;;;4.93;;
4011;SDS011;2020;48.682;9.024;2023-04-16T09:42:09;8.53;;;5.07;;
4011;SDS011;2020;48.682;9.024;2023-04-16T09:44:35;6.90;;;4.53;;
4011;SDS011;2020;48.682;9.024;2023-04-16T09:47:04;5.87;;;5.17;;
4011;SDS011;2020;48.682;9.024;2023-04-16T09:49:32;9.13;;;5.03;;
4011;SDS011;2020;48.682;9.024;2023-04-16T09:51:59;5.27;;;4.80;;
4011;SDS011;2020;48.682;9.024;2023-04-16T09:54:24;7.73;;;4.70;;
4011;SDS011;2020;48.682;9.024;2023-04-16T09:56:50;6.07;;;4.17;;
4011;SDS011;2020;48.682;9.024;2023-04-16T09:59:16;7.73;;;5.43;;
4011;SDS011;2020;48.682;9.024;2023-04-16T10:01:42;6.90;;;6.10;;
4011;SDS011;2020;48.682;9.024;2023-04-16T10:04:07;9.60;;;4.77;;
4011;SDS011;2020;48.682;9.024;2023-04-16T10:06:32;6.53;;;5.47;;
4011;SDS011;2020;48.682;9.024;2023-04-16T10:08:57;8.57;;;4.87;;
4011;SDS011;2020;48.682;9.024;2023-04-16T10:11:23;5.00;;;4.50;;
4011;SDS011;2020;48.682;9.024;2023-04-16T10:13:49;6.63;;;5.90;;
4011;SDS011;2020;48.682;9.024;2023-04-16T10:16:14;6.97;;;5.53;;
4011;SDS011;2020;48.682;9.024;2023-04-16T10:18:41;7.07;;;4.57;;
4011;SDS011;2020;48.682;9.024;2023-04-16T10:21:07;7.80;;;5.43;;
4011;SDS011;2020;48.682;9.024;2023-04-16T10:23:35;5.53;;;4.90;;
4011;SDS011;2020;48.682;9.024;2023-04-16T10:26:02;8.50;;;6.03;;
4011;SDS011;2020;48.682;9.024;2023-04-16T10:28:29;8.90;;;5.27;;
4011;SDS011;2020;48.682;9.024;2023-04-16T10:30:56;4.70;;;4.23;;
4011;SDS011;2020;48.682;9.024;2023-04-16T10:33:23;5.97;;;5.40;;
4011;SDS011;2020;48.682;9.024;2023-04-16T10:35:51;7.93;;;5.30;;
4011;SDS011;2020;48.682;9.024;2023-04-16T10:38:30;6.37;;;4.73;;
4011;SDS011;2020;48.682;9.024;2023-04-16T10:41:03;6.10;;;4.80;;
4011;SDS011;2020;48.682;9.024;2023-04-16T10:43:29;5.87;;;4.87;;
4011;SDS011;2020;48.682;9.024;2023-04-16T10:46:15;6.13;;;5.37;;
4011;SDS011;2020;48.682;9.024;2023-04-16T10:48:48;8.90;;;5.30;;
4011;SDS011;2020;48.682;9.024;2023-04-16T10:51:28;6.37;;;4.93;;
4011;SDS011;2020;48.682;9.024;2023-04-16T10:56:32;7.00;;;4.60;;
4011;SDS011;2020;48.682;9.024;2023-04-16T10:58:58;5.13;;;4.70;;
4011;SDS011;2020;48.682;9.024;2023-04-16T11:01:33;6.53;;;4.80;;
4011;SDS011;2020;48.682;9.024;2023-04-16T11:04:00;6.70;;;5.37;;
4011;SDS011;2020;48.682;9.024;2023-04-16T11:12:19;4.20;;;3.90;;
4011;SDS011;2020;48.682;9.024;2023-04-16T11:14:47;4.30;;;3.30;;
4011;SDS011;2020;48.682;9.024;2023-04-16T11:17:17;3.23;;;3.03;;
4011;SDS011;2020;48.682;9.024;2023-04-16T11:19:44;6.10;;;3.27;;
4011;SDS011;2020;48.682;9.024;2023-04-16T11:22:14;4.80;;;4.20;;
4011;SDS011;2020;48.682;9.024;2023-04-16T11:24:41;5.53;;;3.90;;
4011;SDS011;2020;48.682;9.024;2023-04-16T11:27:17;4.30;;;4.00;;
4011;SDS011;2020;48.682;9.024;2023-04-16T11:29:42;3.93;;;3.37;;
4011;SDS011;2020;48.682;9.024;2023-04-16T11:32:07;4.40;;;4.03;;
4011;SDS011;2020;48.682;9.024;2023-04-16T11:34:33;3.00;;;2.80;;
4011;SDS011;2020;48.682;9.024;2023-04-16T11:36:58;2.83;;;2.67;;
4011;SDS011;2020;48.682;9.024;2023-04-16T11:39:23;4.50;;;4.10;;
4011;SDS011;2020;48.682;9.024;2023-04-16T11:41:50;3.93;;;3.43;;
4011;SDS011;2020;48.682;9.024;2023-04-16T11:44:24;3.10;;;2.90;;
4011;SDS011;2020;48.682;9.024;2023-04-16T11:46:51;4.57;;;3.90;;
4011;SDS011;2020;48.682;9.024;2023-04-16T11:49:29;3.90;;;3.40;;
4011;SDS011;2020;48.682;9.024;2023-04-16T11:51:55;2.73;;;2.53;;
4011;SDS011;2020;48.682;9.024;2023-04-16T11:54:21;3.67;;;3.27;;
4011;SDS011;2020;48.682;9.024;2023-04-16T11:56:49;4.70;;;3.10;;
4011;SDS011;2020;48.682;9.024;2023-04-16T11:59:17;4.37;;;3.07;;
4011;SDS011;2020;48.682;9.024;2023-04-16T12:01:53;3.53;;;3.23;;
4011;SDS011;2020;48.682;9.024;2023-04-16T12:04:22;3.33;;;3.03;;
4011;SDS011;2020;48.682;9.024;2023-04-16T12:09:37;2.80;;;2.60;;
4011;SDS011;2020;48.682;9.024;2023-04-16T12:12:04;2.03;;;1.73;;
4011;SDS011;2020;48.682;9.024;2023-04-16T12:14:30;3.20;;;3.00;;
4011;SDS011;2020;48.682;9.024;2023-04-16T12:17:14;2.50;;;2.00;;
4011;SDS011;2020;48.682;9.024;2023-04-16T12:20:00;2.30;;;2.20;;
4011;SDS011;2020;48.682;9.024;2023-04-16T12:22:30;2.00;;;1.50;;
4011;SDS011;2020;48.682;9.024;2023-04-16T12:25:04;2.43;;;2.23;;
4011;SDS011;2020;48.682;9.024;2023-04-16T12:27:45;2.70;;;1.90;;
4011;SDS011;2020;48.682;9.024;2023-04-16T12:30:13;2.23;;;2.00;;
4011;SDS011;2020;48.682;9.024;2023-04-16T12:32:40;2.33;;;2.23;;
4011;SDS011;2020;48.682;9.024;2023-04-16T12:35:06;2.47;;;2.27;;
4011;SDS011;2020;48.682;9.024;2023-04-16T12:37:32;1.37;;;1.27;;
4011;SDS011;2020;48.682;9.024;2023-04-16T12:39:57;1.43;;;1.43;;
4011;SDS011;2020;48.682;9.024;2023-04-16T12:42:22;1.67;;;1.67;;
4011;SDS011;2020;48.682;9.024;2023-04-16T12:44:47;1.50;;;1.40;;
4011;SDS011;2020;48.682;9.024;2023-04-16T12:47:13;1.37;;;1.27;;
4011;SDS011;2020;48.682;9.024;2023-04-16T12:49:38;1.37;;;1.20;;
4011;SDS011;2020;48.682;9.024;2023-04-16T12:52:03;3.00;;;1.70;;
4011;SDS011;2020;48.682;9.024;2023-04-16T12:54:29;1.43;;;1.33;;
4011;SDS011;2020;48.682;9.024;2023-04-16T12:56:58;1.93;;;1.83;;
4011;SDS011;2020;48.682;9.024;2023-04-16T12:59:23;1.80;;;1.67;;
4011;SDS011;2020;48.682;9.024;2023-04-16T13:01:48;2.00;;;1.80;;
4011;SDS011;2020;48.682;9.024;2023-04-16T13:04:14;1.87;;;1.40;;
4011;SDS011;2020;48.682;9.024;2023-04-16T13:06:42;1.23;;;1.13;;
4011;SDS011;2020;48.682;9.024;2023-04-16T13:09:08;2.10;;;0.90;;
4011;SDS011;2020;48.682;9.024;2023-04-16T13:11:34;1.83;;;1.63;;
4011;SDS011;2020;48.682;9.024;2023-04-16T13:13:59;1.70;;;1.60;;
4011;SDS011;2020;48.682;9.024;2023-04-16T13:16:24;1.13;;;1.13;;
4011;SDS011;2020;48.682;9.024;2023-04-16T13:18:50;1.57;;;1.50;;
4011;SDS011;2020;48.682;9.024;2023-04-16T13:21:15;1.67;;;1.40;;
4011;SDS011;2020;48.682;9.024;2023-04-16T13:23:40;1.43;;;1.43;;
4011;SDS011;2020;48.682;9.024;2023-04-16T13:26:06;1.77;;;1.70;;
4011;SDS011;2020;48.682;9.024;2023-04-16T13:28:31;2.33;;;1.47;;
4011;SDS011;2020;48.682;9.024;2023-04-16T13:30:56;1.00;;;1.00;;
4011;SDS011;2020;48.682;9.024;2023-04-16T13:33:22;1.73;;;1.60;;
4011;SDS011;2020;48.682;9.024;2023-04-16T13:35:48;2.60;;;1.63;;
4011;SDS011;2020;48.682;9.024;2023-04-16T13:38:13;1.47;;;1.37;;
4011;SDS011;2020;48.682;9.024;2023-04-16T13:40:39;2.90;;;1.50;;
4011;SDS011;2020;48.682;9.024;2023-04-16T13:43:04;2.83;;;1.20;;
4011;SDS011;2020;48.682;9.024;2023-04-16T13:45:30;1.20;;;1.10;;
4011;SDS011;2020;48.682;9.024;2023-04-16T13:47:55;1.30;;;1.30;;
4011;SDS011;2020;48.682;9.024;2023-04-16T13:50:21;1.23;;;1.23;;
4011;SDS011;2020;48.682;9.024;2023-04-16T13:52:46;1.67;;;1.67;;
4011;SDS011;2020;48.682;9.024;2023-04-16T13:55:12;2.27;;;2.17;;
4011;SDS011;2020;48.682;9.024;2023-04-16T13:57:42;2.40;;;2.20;;
4011;SDS011;2020;48.682;9.024;2023-04-16T14:00:09;2.20;;;2.00;;
4011;SDS011;2020;48.682;9.024;2023-04-16T14:02:35;1.73;;;1.63;;
4011;SDS011;2020;48.682;9.024;2023-04-16T14:05:00;1.90;;;1.80;;
4011;SDS011;2020;48.682;9.024;2023-04-16T14:07:25;2.17;;;2.07;;
4011;SDS011;2020;48.682;9.024;2023-04-16T14:09:52;2.20;;;1.57;;
4011;SDS011;2020;48.682;9.024;2023-04-16T14:12:17;1.97;;;1.87;;
4011;SDS011;2020;48.682;9.024;2023-04-16T14:14:42;2.67;;;2.23;;
4011;SDS011;2020;48.682;9.024;2023-04-16T14:17:08;2.40;;;2.20;;
4011;SDS011;2020;48.682;9.024;2023-04-16T14:19:33;2.53;;;2.40;;
4011;SDS011;2020;48.682;9.024;2023-04-16T14:21:58;4.47;;;2.93;;
4011;SDS011;2020;48.682;9.024;2023-04-16T14:24:24;3.43;;;2.97;;
4011;SDS011;2020;48.682;9.024;2023-04-16T14:26:49;4.53;;;4.10;;
4011;SDS011;2020;48.682;9.024;2023-04-16T14:29:14;2.83;;;2.67;;
4011;SDS011;2020;48.682;9.024;2023-04-16T14:31:40;3.30;;;3.10;;
4011;SDS011;2020;48.682;9.024;2023-04-16T14:34:05;4.07;;;3.77;;
4011;SDS011;2020;48.682;9.024;2023-04-16T14:36:30;4.80;;;4.40;;
4011;SDS011;2020;48.682;9.024;2023-04-16T14:38:56;5.03;;;4.63;;
4011;SDS011;2020;48.682;9.024;2023-04-16T14:41:21;3.90;;;3.60;;
4011;SDS011;2020;48.682;9.024;2023-04-16T14:43:46;3.17;;;2.90;;
4011;SDS011;2020;48.682;9.024;2023-04-16T14:46:12;3.57;;;3.37;;
4011;SDS011;2020;48.682;9.024;2023-04-16T14:48:37;3.23;;;3.03;;
4011;SDS011;2020;48.682;9.024;2023-04-16T14:51:02;3.90;;;3.60;;
4011;SDS011;2020;48.682;9.024;2023-04-16T14:53:28;3.90;;;3.60;;
4011;SDS011;2020;48.682;9.024;2023-04-16T14:55:53;3.63;;;3.30;;
4011;SDS011;2020;48.682;9.024;2023-04-16T14:58:22;4.63;;;3.70;;
4011;SDS011;2020;48.682;9.024;2023-04-16T15:00:47;3.83;;;3.47;;
4011;SDS011;2020;48.682;9.024;2023-04-16T15:03:12;3.13;;;2.93;;
4011;SDS011;2020;48.682;9.024;2023-04-16T15:05:37;4.63;;;4.23;;
4011;SDS011;2020;48.682;9.024;2023-04-16T15:08:03;3.30;;;3.13;;
4011;SDS011;2020;48.682;9.024;2023-04-16T15:10:29;4.47;;;4.17;;
4011;SDS011;2020;48.682;9.024;2023-04-16T15:12:54;4.03;;;3.73;;
4011;SDS011;2020;48.682;9.024;2023-04-16T15:15:19;3.60;;;3.40;;
4011;SDS011;2020;48.682;9.024;2023-04-16T15:17:45;5.87;;;3.70;;
4011;SDS011;2020;48.682;9.024;2023-04-16T15:20:10;5.40;;;3.53;;
4011;SDS011;2020;48.682;9.024;2023-04-16T15:22:36;4.97;;;4.47;;